sensor_id;sensor_type;location;lat;lon;timestamp;temperature;humidity
19342;DHT22;9807;48.258;12.690;2023-10-09T00:01:26;16.80;99.90
19342;DHT22;9807;48.258;12.690;2023-10-09T00:03:52;16.80;99.90
19342;DHT22;9807;48.258;12.690;2023-10-09T00:06:22;16.80;99.90
19342;DHT22;9807;48.258;12.690;2023-10-09T00:09:02;16.80;99.90
19342;DHT22;9807;48.258;12.690;2023-10-09T00:11:42;16.80;99.90
19342;DHT22;9807;48.258;12.690;2023-10-09T00:14:13;16.80;99.90
19342;DHT22;9807;48.258;12.690;2023-10-09T00:16:44;16.80;99.90
19342;DHT22;9807;48.258;12.690;2023-10-09T00:19:14;16.70;99.90
19342;DHT22;9807;48.258;12.690;2023-10-09T00:21:49;16.80;99.90
19342;DHT22;9807;48.258;12.690;2023-10-09T00:24:16;16.80;99.90
19342;DHT22;9807;48.258;12.690;2023-10-09T00:26:49;16.70;99.90
19342;DHT22;9807;48.258;12.690;2023-10-09T00:29:16;16.60;99.90
19342;DHT22;9807;48.258;12.690;2023-10-09T00:31:53;16.60;99.90
19342;DHT22;9807;48.258;12.690;2023-10-09T00:34:38;16.70;99.90
19342;DHT22;9807;48.258;12.690;2023-10-09T00:37:11;16.60;99.90
19342;DHT22;9807;48.258;12.690;2023-10-09T00:39:42;16.40;99.90
19342;DHT22;9807;48.258;12.690;2023-10-09T00:42:12;16.10;99.90
19342;DHT22;9807;48.258;12.690;2023-10-09T00:44:41;15.90;99.90
19342;DHT22;9807;48.258;12.690;2023-10-09T00:47:12;16.00;99.90
19342;DHT22;9807;48.258;12.690;2023-10-09T00:49:59;16.10;99.90
19342;DHT22;9807;48.258;12.690;2023-10-09T00:52:31;16.20;99.90
19342;DHT22;9807;48.258;12.690;2023-10-09T00:55:03;16.30;99.90
19342;DHT22;9807;48.258;12.690;2023-10-09T00:57:47;16.30;99.90
19342;DHT22;9807;48.258;12.690;2023-10-09T01:00:23;16.40;99.90
19342;DHT22;9807;48.258;12.690;2023-10-09T01:03:12;16.50;99.90
19342;DHT22;9807;48.258;12.690;2023-10-09T01:08:26;16.50;99.90
19342;DHT22;9807;48.258;12.690;2023-10-09T01:11:12;16.50;99.90
19342;DHT22;9807;48.258;12.690;2023-10-09T01:13:47;16.50;99.90
19342;DHT22;9807;48.258;12.690;2023-10-09T01:16:21;16.40;99.90
19342;DHT22;9807;48.258;12.690;2023-10-09T01:18:50;16.40;99.90
19342;DHT22;9807;48.258;12.690;2023-10-09T01:21:17;16.40;99.90
19342;DHT22;9807;48.258;12.690;2023-10-09T01:23:49;16.40;99.90
19342;DHT22;9807;48.258;12.690;2023-10-09T01:26:41;16.40;99.90
19342;DHT22;9807;48.258;12.690;2023-10-09T01:29:19;16.40;99.90
19342;DHT22;9807;48.258;12.690;2023-10-09T01:31:50;16.40;99.90
19342;DHT22;9807;48.258;12.690;2023-10-09T01:34:26;16.40;99.90
19342;DHT22;9807;48.258;12.690;2023-10-09T01:37:13;16.40;99.90
19342;DHT22;9807;48.258;12.690;2023-10-09T01:39:52;16.40;99.90
19342;DHT22;9807;48.258;12.690;2023-10-09T01:42:19;16.40;99.90
19342;DHT22;9807;48.258;12.690;2023-10-09T01:45:11;16.40;99.90
19342;DHT22;9807;48.258;12.690;2023-10-09T01:47:37;16.40;99.90
19342;DHT22;9807;48.258;12.690;2023-10-09T01:50:07;16.40;99.90
19342;DHT22;9807;48.258;12.690;2023-10-09T01:53:00;16.40;99.90
19342;DHT22;9807;48.258;12.690;2023-10-09T01:55:31;16.30;99.90
19342;DHT22;9807;48.258;12.690;2023-10-09T01:58:06;16.40;99.90
19342;DHT22;9807;48.258;12.690;2023-10-09T02:00:49;16.30;99.90
19342;DHT22;9807;48.258;12.690;2023-10-09T02:03:15;16.30;99.90
19342;DHT22;9807;48.258;12.690;2023-10-09T02:05:44;16.30;99.90
19342;DHT22;9807;48.258;12.690;2023-10-09T02:08:10;16.30;99.90
19342;DHT22;9807;48.258;12.690;2023-10-09T02:10:37;16.30;99.90
19342;DHT22;9807;48.258;12.690;2023-10-09T02:13:05;16.30;99.90
19342;DHT22;9807;48.258;12.690;2023-10-09T02:15:43;16.30;99.90
19342;DHT22;9807;48.258;12.690;2023-10-09T02:18:13;16.30;99.90
19342;DHT22;9807;48.258;12.690;2023-10-09T02:20:45;16.30;99.90
19342;DHT22;9807;48.258;12.690;2023-10-09T02:23:28;16.20;99.90
19342;DHT22;9807;48.258;12.690;2023-10-09T02:26:05;16.20;99.90
19342;DHT22;9807;48.258;12.690;2023-10-09T02:28:35;16.20;99.90
19342;DHT22;9807;48.258;12.690;2023-10-09T02:31:09;16.10;99.90
19342;DHT22;9807;48.258;12.690;2023-10-09T02:33:36;16.00;99.90
19342;DHT22;9807;48.258;12.690;2023-10-09T02:36:10;16.10;99.90
19342;DHT22;9807;48.258;12.690;2023-10-09T02:38:41;16.10;99.90
19342;DHT22;9807;48.258;12.690;2023-10-09T02:41:09;16.10;99.90
19342;DHT22;9807;48.258;12.690;2023-10-09T02:43:38;16.10;99.90
19342;DHT22;9807;48.258;12.690;2023-10-09T02:46:17;16.10;99.90
19342;DHT22;9807;48.258;12.690;2023-10-09T02:48:47;16.10;99.90
19342;DHT22;9807;48.258;12.690;2023-10-09T02:51:22;16.10;99.90
19342;DHT22;9807;48.258;12.690;2023-10-09T02:53:54;15.80;99.90
19342;DHT22;9807;48.258;12.690;2023-10-09T02:56:24;15.40;99.90
19342;DHT22;9807;48.258;12.690;2023-10-09T02:58:53;15.20;99.90
19342;DHT22;9807;48.258;12.690;2023-10-09T03:01:19;15.10;99.90
19342;DHT22;9807;48.258;12.690;2023-10-09T03:03:44;15.10;99.90
19342;DHT22;9807;48.258;12.690;2023-10-09T03:06:15;15.20;99.90
19342;DHT22;9807;48.258;12.690;2023-10-09T03:08:44;15.40;99.90
19342;DHT22;9807;48.258;12.690;2023-10-09T03:11:13;15.50;99.90
19342;DHT22;9807;48.258;12.690;2023-10-09T03:13:43;15.70;99.90
19342;DHT22;9807;48.258;12.690;2023-10-09T03:16:10;15.80;99.90
19342;DHT22;9807;48.258;12.690;2023-10-09T03:18:47;15.80;99.90
19342;DHT22;9807;48.258;12.690;2023-10-09T03:21:14;15.90;99.90
19342;DHT22;9807;48.258;12.690;2023-10-09T03:23:40;15.90;99.90
19342;DHT22;9807;48.258;12.690;2023-10-09T03:26:06;15.90;99.90
19342;DHT22;9807;48.258;12.690;2023-10-09T03:28:33;16.00;99.90
19342;DHT22;9807;48.258;12.690;2023-10-09T03:30:59;16.00;99.90
19342;DHT22;9807;48.258;12.690;2023-10-09T03:33:28;16.00;99.90
19342;DHT22;9807;48.258;12.690;2023-10-09T03:36:01;16.10;99.90
19342;DHT22;9807;48.258;12.690;2023-10-09T03:38:27;15.90;99.90
19342;DHT22;9807;48.258;12.690;2023-10-09T03:41:03;15.80;99.90
19342;DHT22;9807;48.258;12.690;2023-10-09T03:43:35;15.70;99.90
19342;DHT22;9807;48.258;12.690;2023-10-09T03:46:11;15.80;99.90
19342;DHT22;9807;48.258;12.690;2023-10-09T03:49:00;15.80;99.90
19342;DHT22;9807;48.258;12.690;2023-10-09T03:51:29;15.90;99.90
19342;DHT22;9807;48.258;12.690;2023-10-09T03:53:55;15.90;99.90
19342;DHT22;9807;48.258;12.690;2023-10-09T03:56:21;15.90;99.90
19342;DHT22;9807;48.258;12.690;2023-10-09T03:58:49;15.90;99.90
19342;DHT22;9807;48.258;12.690;2023-10-09T04:01:15;15.90;99.90
19342;DHT22;9807;48.258;12.690;2023-10-09T04:03:58;15.90;99.90
19342;DHT22;9807;48.258;12.690;2023-10-09T04:06:28;15.80;99.90
19342;DHT22;9807;48.258;12.690;2023-10-09T04:09:10;15.80;99.90
19342;DHT22;9807;48.258;12.690;2023-10-09T04:11:49;15.80;99.90
19342;DHT22;9807;48.258;12.690;2023-10-09T04:14:23;15.60;99.90
19342;DHT22;9807;48.258;12.690;2023-10-09T04:16:58;15.70;99.90
19342;DHT22;9807;48.258;12.690;2023-10-09T04:19:31;15.70;99.90
19342;DHT22;9807;48.258;12.690;2023-10-09T04:22:07;15.60;99.90
19342;DHT22;9807;48.258;12.690;2023-10-09T04:24:43;15.60;99.90
19342;DHT22;9807;48.258;12.690;2023-10-09T04:27:09;15.50;99.90
19342;DHT22;9807;48.258;12.690;2023-10-09T04:29:35;15.40;99.90
19342;DHT22;9807;48.258;12.690;2023-10-09T04:32:04;15.20;99.90
19342;DHT22;9807;48.258;12.690;2023-10-09T04:34:34;15.10;99.90
19342;DHT22;9807;48.258;12.690;2023-10-09T04:37:17;15.00;99.90
19342;DHT22;9807;48.258;12.690;2023-10-09T04:40:03;14.80;99.90
19342;DHT22;9807;48.258;12.690;2023-10-09T04:42:39;14.70;99.90
19342;DHT22;9807;48.258;12.690;2023-10-09T04:45:12;14.80;99.90
19342;DHT22;9807;48.258;12.690;2023-10-09T04:47:40;14.90;99.90
19342;DHT22;9807;48.258;12.690;2023-10-09T04:50:15;15.00;99.90
19342;DHT22;9807;48.258;12.690;2023-10-09T04:52:44;15.10;99.90
19342;DHT22;9807;48.258;12.690;2023-10-09T04:55:10;15.20;99.90
19342;DHT22;9807;48.258;12.690;2023-10-09T04:57:40;15.30;99.90
19342;DHT22;9807;48.258;12.690;2023-10-09T05:00:10;15.40;99.90
19342;DHT22;9807;48.258;12.690;2023-10-09T05:03:08;15.40;99.90
19342;DHT22;9807;48.258;12.690;2023-10-09T05:05:38;15.50;99.90
19342;DHT22;9807;48.258;12.690;2023-10-09T05:08:17;15.50;99.90
19342;DHT22;9807;48.258;12.690;2023-10-09T05:16:16;15.50;99.90
19342;DHT22;9807;48.258;12.690;2023-10-09T05:18:51;15.50;99.90
19342;DHT22;9807;48.258;12.690;2023-10-09T05:21:39;15.30;99.90
19342;DHT22;9807;48.258;12.690;2023-10-09T05:24:08;15.30;99.90
19342;DHT22;9807;48.258;12.690;2023-10-09T05:26:38;15.30;99.90
19342;DHT22;9807;48.258;12.690;2023-10-09T05:29:26;15.20;99.90
19342;DHT22;9807;48.258;12.690;2023-10-09T05:32:02;15.20;99.90
19342;DHT22;9807;48.258;12.690;2023-10-09T05:34:31;15.20;99.90
19342;DHT22;9807;48.258;12.690;2023-10-09T05:39:43;15.00;99.90
19342;DHT22;9807;48.258;12.690;2023-10-09T05:42:09;14.70;99.90
19342;DHT22;9807;48.258;12.690;2023-10-09T05:44:44;14.60;99.90
19342;DHT22;9807;48.258;12.690;2023-10-09T05:47:41;14.60;99.90
19342;DHT22;9807;48.258;12.690;2023-10-09T05:50:24;14.50;99.90
19342;DHT22;9807;48.258;12.690;2023-10-09T05:52:57;14.50;99.90
19342;DHT22;9807;48.258;12.690;2023-10-09T05:55:42;14.50;99.90
19342;DHT22;9807;48.258;12.690;2023-10-09T05:58:34;14.50;99.90
19342;DHT22;9807;48.258;12.690;2023-10-09T06:01:28;14.50;99.90
19342;DHT22;9807;48.258;12.690;2023-10-09T06:04:12;14.50;99.90
19342;DHT22;9807;48.258;12.690;2023-10-09T06:06:41;14.60;99.90
19342;DHT22;9807;48.258;12.690;2023-10-09T06:09:15;14.70;99.90
19342;DHT22;9807;48.258;12.690;2023-10-09T06:11:42;14.80;99.90
19342;DHT22;9807;48.258;12.690;2023-10-09T06:14:19;14.70;99.90
19342;DHT22;9807;48.258;12.690;2023-10-09T06:17:11;14.70;99.90
19342;DHT22;9807;48.258;12.690;2023-10-09T06:19:40;14.70;99.90
19342;DHT22;9807;48.258;12.690;2023-10-09T06:22:09;14.70;99.90
19342;DHT22;9807;48.258;12.690;2023-10-09T06:24:55;14.70;99.90
19342;DHT22;9807;48.258;12.690;2023-10-09T06:27:23;14.70;99.90
19342;DHT22;9807;48.258;12.690;2023-10-09T06:29:58;14.60;99.90
19342;DHT22;9807;48.258;12.690;2023-10-09T06:32:43;14.60;99.90
19342;DHT22;9807;48.258;12.690;2023-10-09T06:35:20;14.60;99.90
19342;DHT22;9807;48.258;12.690;2023-10-09T06:37:56;14.70;99.90
19342;DHT22;9807;48.258;12.690;2023-10-09T06:43:15;14.80;99.90
19342;DHT22;9807;48.258;12.690;2023-10-09T06:45:51;14.90;99.90
19342;DHT22;9807;48.258;12.690;2023-10-09T06:48:23;14.90;99.90
19342;DHT22;9807;48.258;12.690;2023-10-09T06:51:11;14.80;99.90
19342;DHT22;9807;48.258;12.690;2023-10-09T06:56:25;14.80;99.90
19342;DHT22;9807;48.258;12.690;2023-10-09T06:58:58;14.80;99.90
19342;DHT22;9807;48.258;12.690;2023-10-09T07:01:27;14.80;99.90
19342;DHT22;9807;48.258;12.690;2023-10-09T07:03:53;14.90;99.90
19342;DHT22;9807;48.258;12.690;2023-10-09T07:06:21;15.00;99.90
19342;DHT22;9807;48.258;12.690;2023-10-09T07:08:56;15.10;99.90
19342;DHT22;9807;48.258;12.690;2023-10-09T07:14:16;15.20;99.90
19342;DHT22;9807;48.258;12.690;2023-10-09T07:17:01;15.20;99.90
19342;DHT22;9807;48.258;12.690;2023-10-09T07:19:31;15.20;99.90
19342;DHT22;9807;48.258;12.690;2023-10-09T07:22:02;15.10;99.90
19342;DHT22;9807;48.258;12.690;2023-10-09T07:24:31;15.20;99.90
19342;DHT22;9807;48.258;12.690;2023-10-09T07:27:09;15.10;99.90
19342;DHT22;9807;48.258;12.690;2023-10-09T07:29:38;15.20;99.90
19342;DHT22;9807;48.258;12.690;2023-10-09T07:32:16;15.30;99.90
19342;DHT22;9807;48.258;12.690;2023-10-09T07:34:51;15.50;99.90
19342;DHT22;9807;48.258;12.690;2023-10-09T07:37:27;15.60;99.90
19342;DHT22;9807;48.258;12.690;2023-10-09T07:40:04;15.80;99.90
19342;DHT22;9807;48.258;12.690;2023-10-09T07:42:34;15.80;99.90
19342;DHT22;9807;48.258;12.690;2023-10-09T07:45:10;16.00;99.90
19342;DHT22;9807;48.258;12.690;2023-10-09T07:47:51;16.10;99.90
19342;DHT22;9807;48.258;12.690;2023-10-09T07:50:40;16.20;99.90
19342;DHT22;9807;48.258;12.690;2023-10-09T07:53:15;16.30;99.90
19342;DHT22;9807;48.258;12.690;2023-10-09T07:55:47;16.40;99.90
19342;DHT22;9807;48.258;12.690;2023-10-09T07:58:31;16.60;99.90
19342;DHT22;9807;48.258;12.690;2023-10-09T08:00:58;16.70;99.90
19342;DHT22;9807;48.258;12.690;2023-10-09T08:03:37;16.70;99.90
19342;DHT22;9807;48.258;12.690;2023-10-09T08:06:03;16.70;99.90
19342;DHT22;9807;48.258;12.690;2023-10-09T08:08:47;16.80;99.90
19342;DHT22;9807;48.258;12.690;2023-10-09T08:11:29;16.90;99.90
19342;DHT22;9807;48.258;12.690;2023-10-09T08:14:04;17.00;99.90
19342;DHT22;9807;48.258;12.690;2023-10-09T08:16:45;17.10;99.90
19342;DHT22;9807;48.258;12.690;2023-10-09T08:19:11;17.20;99.90
19342;DHT22;9807;48.258;12.690;2023-10-09T08:22:00;17.30;99.90
19342;DHT22;9807;48.258;12.690;2023-10-09T08:24:52;17.50;99.90
19342;DHT22;9807;48.258;12.690;2023-10-09T08:27:25;17.70;99.90
19342;DHT22;9807;48.258;12.690;2023-10-09T08:30:02;17.80;99.90
19342;DHT22;9807;48.258;12.690;2023-10-09T08:32:49;17.90;99.90
19342;DHT22;9807;48.258;12.690;2023-10-09T08:35:33;18.10;99.90
19342;DHT22;9807;48.258;12.690;2023-10-09T08:38:03;18.20;99.90
19342;DHT22;9807;48.258;12.690;2023-10-09T08:40:34;18.30;99.90
19342;DHT22;9807;48.258;12.690;2023-10-09T08:43:18;18.40;99.90
19342;DHT22;9807;48.258;12.690;2023-10-09T08:45:53;18.60;99.90
19342;DHT22;9807;48.258;12.690;2023-10-09T08:48:22;18.60;99.90
19342;DHT22;9807;48.258;12.690;2023-10-09T08:50:52;18.70;99.90
19342;DHT22;9807;48.258;12.690;2023-10-09T08:53:24;18.80;99.90
19342;DHT22;9807;48.258;12.690;2023-10-09T08:55:53;18.90;99.90
19342;DHT22;9807;48.258;12.690;2023-10-09T08:58:18;19.00;99.90
19342;DHT22;9807;48.258;12.690;2023-10-09T09:00:52;19.10;99.90
19342;DHT22;9807;48.258;12.690;2023-10-09T09:03:19;19.10;99.90
19342;DHT22;9807;48.258;12.690;2023-10-09T09:06:01;19.20;99.90
19342;DHT22;9807;48.258;12.690;2023-10-09T09:08:28;19.20;99.90
19342;DHT22;9807;48.258;12.690;2023-10-09T09:11:06;19.30;99.90
19342;DHT22;9807;48.258;12.690;2023-10-09T09:14:05;19.40;99.90
19342;DHT22;9807;48.258;12.690;2023-10-09T09:16:33;19.50;99.90
19342;DHT22;9807;48.258;12.690;2023-10-09T09:19:07;19.60;99.90
19342;DHT22;9807;48.258;12.690;2023-10-09T09:21:38;19.80;99.90
19342;DHT22;9807;48.258;12.690;2023-10-09T09:24:08;19.80;99.90
19342;DHT22;9807;48.258;12.690;2023-10-09T09:26:50;19.90;99.90
19342;DHT22;9807;48.258;12.690;2023-10-09T09:29:40;20.00;99.90
19342;DHT22;9807;48.258;12.690;2023-10-09T09:32:08;20.10;99.90
19342;DHT22;9807;48.258;12.690;2023-10-09T09:34:51;20.30;99.90
19342;DHT22;9807;48.258;12.690;2023-10-09T09:37:22;20.30;99.90
19342;DHT22;9807;48.258;12.690;2023-10-09T09:40:05;20.40;99.90
19342;DHT22;9807;48.258;12.690;2023-10-09T09:42:58;20.50;99.90
19342;DHT22;9807;48.258;12.690;2023-10-09T09:45:38;20.60;99.90
19342;DHT22;9807;48.258;12.690;2023-10-09T09:48:05;20.70;99.90
19342;DHT22;9807;48.258;12.690;2023-10-09T09:50:38;20.70;99.90
19342;DHT22;9807;48.258;12.690;2023-10-09T09:53:13;20.90;99.90
19342;DHT22;9807;48.258;12.690;2023-10-09T09:58:18;21.10;99.90
19342;DHT22;9807;48.258;12.690;2023-10-09T10:00:50;21.10;99.90
19342;DHT22;9807;48.258;12.690;2023-10-09T10:03:23;21.20;99.90
19342;DHT22;9807;48.258;12.690;2023-10-09T10:05:52;21.20;99.90
19342;DHT22;9807;48.258;12.690;2023-10-09T10:08:22;21.20;99.90
19342;DHT22;9807;48.258;12.690;2023-10-09T10:10:56;21.10;99.90
19342;DHT22;9807;48.258;12.690;2023-10-09T10:16:12;21.10;99.90
19342;DHT22;9807;48.258;12.690;2023-10-09T10:18:56;21.20;99.90
19342;DHT22;9807;48.258;12.690;2023-10-09T10:21:42;21.20;99.90
19342;DHT22;9807;48.258;12.690;2023-10-09T10:29:44;21.30;99.90
19342;DHT22;9807;48.258;12.690;2023-10-09T10:32:15;21.30;99.90
19342;DHT22;9807;48.258;12.690;2023-10-09T10:40:09;21.40;99.90
19342;DHT22;9807;48.258;12.690;2023-10-09T10:42:58;21.50;99.90
19342;DHT22;9807;48.258;12.690;2023-10-09T10:45:37;21.60;99.90
19342;DHT22;9807;48.258;12.690;2023-10-09T10:48:10;21.70;99.90
19342;DHT22;9807;48.258;12.690;2023-10-09T10:50:49;21.90;99.90
19342;DHT22;9807;48.258;12.690;2023-10-09T10:53:22;21.90;99.90
19342;DHT22;9807;48.258;12.690;2023-10-09T10:56:00;22.00;99.90
19342;DHT22;9807;48.258;12.690;2023-10-09T10:58:52;22.00;99.90
19342;DHT22;9807;48.258;12.690;2023-10-09T11:01:31;22.00;99.90
19342;DHT22;9807;48.258;12.690;2023-10-09T11:04:22;21.90;99.90
19342;DHT22;9807;48.258;12.690;2023-10-09T11:06:58;21.90;99.90
19342;DHT22;9807;48.258;12.690;2023-10-09T11:10:03;21.90;99.90
19342;DHT22;9807;48.258;12.690;2023-10-09T11:12:30;21.90;99.90
19342;DHT22;9807;48.258;12.690;2023-10-09T11:15:37;21.90;99.90
19342;DHT22;9807;48.258;12.690;2023-10-09T11:18:10;21.90;99.90
19342;DHT22;9807;48.258;12.690;2023-10-09T11:20:58;21.90;99.90
19342;DHT22;9807;48.258;12.690;2023-10-09T11:23:31;22.00;99.90
19342;DHT22;9807;48.258;12.690;2023-10-09T11:26:00;22.10;99.90
19342;DHT22;9807;48.258;12.690;2023-10-09T11:28:45;22.10;99.90
19342;DHT22;9807;48.258;12.690;2023-10-09T11:31:15;22.10;99.90
19342;DHT22;9807;48.258;12.690;2023-10-09T11:36:18;22.30;99.90
19342;DHT22;9807;48.258;12.690;2023-10-09T11:39:02;22.30;99.90
19342;DHT22;9807;48.258;12.690;2023-10-09T11:41:45;22.20;99.90
19342;DHT22;9807;48.258;12.690;2023-10-09T11:44:15;22.10;99.90
19342;DHT22;9807;48.258;12.690;2023-10-09T11:47:03;22.00;99.90
19342;DHT22;9807;48.258;12.690;2023-10-09T11:49:55;22.00;99.90
19342;DHT22;9807;48.258;12.690;2023-10-09T11:52:28;21.90;99.90
19342;DHT22;9807;48.258;12.690;2023-10-09T11:54:57;21.90;99.90
19342;DHT22;9807;48.258;12.690;2023-10-09T11:57:24;21.90;99.90
19342;DHT22;9807;48.258;12.690;2023-10-09T11:59:59;22.00;99.90
19342;DHT22;9807;48.258;12.690;2023-10-09T12:02:25;21.90;99.90
19342;DHT22;9807;48.258;12.690;2023-10-09T12:04:51;21.90;99.90
19342;DHT22;9807;48.258;12.690;2023-10-09T12:07:21;21.90;99.90
19342;DHT22;9807;48.258;12.690;2023-10-09T12:09:47;22.00;99.90
19342;DHT22;9807;48.258;12.690;2023-10-09T12:12:14;22.00;99.90
19342;DHT22;9807;48.258;12.690;2023-10-09T12:14:40;22.00;99.90
19342;DHT22;9807;48.258;12.690;2023-10-09T12:17:07;22.00;99.90
19342;DHT22;9807;48.258;12.690;2023-10-09T12:19:34;22.10;99.90
19342;DHT22;9807;48.258;12.690;2023-10-09T12:22:00;22.20;99.90
19342;DHT22;9807;48.258;12.690;2023-10-09T12:24:27;22.20;99.90
19342;DHT22;9807;48.258;12.690;2023-10-09T12:26:56;22.10;99.90
19342;DHT22;9807;48.258;12.690;2023-10-09T12:29:22;22.00;99.90
19342;DHT22;9807;48.258;12.690;2023-10-09T12:31:49;22.00;99.90
19342;DHT22;9807;48.258;12.690;2023-10-09T12:34:26;21.90;99.90
19342;DHT22;9807;48.258;12.690;2023-10-09T12:36:53;21.80;99.90
19342;DHT22;9807;48.258;12.690;2023-10-09T12:39:20;21.70;99.90
19342;DHT22;9807;48.258;12.690;2023-10-09T12:41:46;21.70;99.90
19342;DHT22;9807;48.258;12.690;2023-10-09T12:44:14;21.70;99.90
19342;DHT22;9807;48.258;12.690;2023-10-09T12:46:43;21.70;99.90
19342;DHT22;9807;48.258;12.690;2023-10-09T12:49:19;21.60;99.90
19342;DHT22;9807;48.258;12.690;2023-10-09T12:51:51;21.60;99.90
19342;DHT22;9807;48.258;12.690;2023-10-09T12:54:17;21.50;99.90
19342;DHT22;9807;48.258;12.690;2023-10-09T12:56:45;21.50;99.90
19342;DHT22;9807;48.258;12.690;2023-10-09T12:59:14;21.40;99.90
19342;DHT22;9807;48.258;12.690;2023-10-09T13:01:43;21.30;99.90
19342;DHT22;9807;48.258;12.690;2023-10-09T13:04:16;21.30;99.90
19342;DHT22;9807;48.258;12.690;2023-10-09T13:06:43;21.30;99.90
19342;DHT22;9807;48.258;12.690;2023-10-09T13:09:14;21.20;99.90
19342;DHT22;9807;48.258;12.690;2023-10-09T13:11:41;21.20;99.90
19342;DHT22;9807;48.258;12.690;2023-10-09T13:14:07;21.20;99.90
19342;DHT22;9807;48.258;12.690;2023-10-09T13:16:47;21.20;99.90
19342;DHT22;9807;48.258;12.690;2023-10-09T13:19:16;21.10;99.90
19342;DHT22;9807;48.258;12.690;2023-10-09T13:21:43;21.20;99.90
19342;DHT22;9807;48.258;12.690;2023-10-09T13:24:09;21.20;99.90
19342;DHT22;9807;48.258;12.690;2023-10-09T13:26:42;21.10;99.90
19342;DHT22;9807;48.258;12.690;2023-10-09T13:29:10;21.10;99.90
19342;DHT22;9807;48.258;12.690;2023-10-09T13:31:37;21.00;99.90
19342;DHT22;9807;48.258;12.690;2023-10-09T13:34:06;21.00;99.90
19342;DHT22;9807;48.258;12.690;2023-10-09T13:36:35;20.90;99.90
19342;DHT22;9807;48.258;12.690;2023-10-09T13:39:07;20.80;99.90
19342;DHT22;9807;48.258;12.690;2023-10-09T13:41:56;20.90;99.90
19342;DHT22;9807;48.258;12.690;2023-10-09T13:44:29;21.00;99.90
19342;DHT22;9807;48.258;12.690;2023-10-09T13:47:04;20.90;99.90
19342;DHT22;9807;48.258;12.690;2023-10-09T13:49:31;20.90;99.90
19342;DHT22;9807;48.258;12.690;2023-10-09T13:52:01;20.90;99.90
19342;DHT22;9807;48.258;12.690;2023-10-09T13:54:28;20.90;99.90
19342;DHT22;9807;48.258;12.690;2023-10-09T13:57:05;20.90;99.90
19342;DHT22;9807;48.258;12.690;2023-10-09T13:59:33;20.70;99.90
19342;DHT22;9807;48.258;12.690;2023-10-09T14:02:07;20.70;99.90
19342;DHT22;9807;48.258;12.690;2023-10-09T14:04:43;20.70;99.90
19342;DHT22;9807;48.258;12.690;2023-10-09T14:07:09;20.70;99.90
19342;DHT22;9807;48.258;12.690;2023-10-09T14:09:35;20.70;99.90
19342;DHT22;9807;48.258;12.690;2023-10-09T14:12:06;20.70;99.90
19342;DHT22;9807;48.258;12.690;2023-10-09T14:14:39;20.80;99.90
19342;DHT22;9807;48.258;12.690;2023-10-09T14:17:15;20.70;99.90
19342;DHT22;9807;48.258;12.690;2023-10-09T14:19:47;20.50;99.90
19342;DHT22;9807;48.258;12.690;2023-10-09T14:22:14;20.40;99.90
19342;DHT22;9807;48.258;12.690;2023-10-09T14:24:48;20.30;99.90
19342;DHT22;9807;48.258;12.690;2023-10-09T14:27:22;20.20;99.90
19342;DHT22;9807;48.258;12.690;2023-10-09T14:29:57;20.20;99.90
19342;DHT22;9807;48.258;12.690;2023-10-09T14:32:25;20.10;99.90
19342;DHT22;9807;48.258;12.690;2023-10-09T14:35:09;20.10;99.90
19342;DHT22;9807;48.258;12.690;2023-10-09T14:37:39;20.00;99.90
19342;DHT22;9807;48.258;12.690;2023-10-09T14:40:06;20.10;99.90
19342;DHT22;9807;48.258;12.690;2023-10-09T14:42:41;20.00;99.90
19342;DHT22;9807;48.258;12.690;2023-10-09T14:45:13;19.90;99.90
19342;DHT22;9807;48.258;12.690;2023-10-09T14:47:43;20.00;99.90
19342;DHT22;9807;48.258;12.690;2023-10-09T14:50:09;20.00;99.90
19342;DHT22;9807;48.258;12.690;2023-10-09T14:52:35;20.00;99.90
19342;DHT22;9807;48.258;12.690;2023-10-09T14:55:06;20.00;99.90
19342;DHT22;9807;48.258;12.690;2023-10-09T14:57:32;20.00;99.90
19342;DHT22;9807;48.258;12.690;2023-10-09T14:59:59;20.00;99.90
19342;DHT22;9807;48.258;12.690;2023-10-09T15:02:25;20.00;99.90
19342;DHT22;9807;48.258;12.690;2023-10-09T15:04:51;20.00;99.90
19342;DHT22;9807;48.258;12.690;2023-10-09T15:07:18;20.00;99.90
19342;DHT22;9807;48.258;12.690;2023-10-09T15:09:46;20.00;99.90
19342;DHT22;9807;48.258;12.690;2023-10-09T15:12:12;20.00;99.90
19342;DHT22;9807;48.258;12.690;2023-10-09T15:14:38;19.90;99.90
19342;DHT22;9807;48.258;12.690;2023-10-09T15:17:04;19.90;99.90
19342;DHT22;9807;48.258;12.690;2023-10-09T15:19:32;20.00;99.90
19342;DHT22;9807;48.258;12.690;2023-10-09T15:21:58;20.00;99.90
19342;DHT22;9807;48.258;12.690;2023-10-09T15:24:25;19.90;99.90
19342;DHT22;9807;48.258;12.690;2023-10-09T15:26:53;19.90;99.90
19342;DHT22;9807;48.258;12.690;2023-10-09T15:29:24;19.90;99.90
19342;DHT22;9807;48.258;12.690;2023-10-09T15:32:01;19.90;99.90
19342;DHT22;9807;48.258;12.690;2023-10-09T15:34:33;19.90;99.90
19342;DHT22;9807;48.258;12.690;2023-10-09T15:37:05;20.00;99.90
19342;DHT22;9807;48.258;12.690;2023-10-09T15:39:35;20.00;99.90
19342;DHT22;9807;48.258;12.690;2023-10-09T15:42:01;20.10;99.90
19342;DHT22;9807;48.258;12.690;2023-10-09T15:44:30;20.10;99.90
19342;DHT22;9807;48.258;12.690;2023-10-09T15:46:59;20.00;99.90
19342;DHT22;9807;48.258;12.690;2023-10-09T15:49:28;20.00;99.90
19342;DHT22;9807;48.258;12.690;2023-10-09T15:51:56;20.00;99.90
19342;DHT22;9807;48.258;12.690;2023-10-09T15:54:24;19.90;99.90
19342;DHT22;9807;48.258;12.690;2023-10-09T15:56:49;19.80;99.90
19342;DHT22;9807;48.258;12.690;2023-10-09T15:59:15;19.80;99.90
19342;DHT22;9807;48.258;12.690;2023-10-09T16:01:42;19.80;99.90
19342;DHT22;9807;48.258;12.690;2023-10-09T16:04:09;19.80;99.90
19342;DHT22;9807;48.258;12.690;2023-10-09T16:06:36;19.80;99.90
19342;DHT22;9807;48.258;12.690;2023-10-09T16:09:05;19.70;99.90
19342;DHT22;9807;48.258;12.690;2023-10-09T16:11:31;19.70;99.90
19342;DHT22;9807;48.258;12.690;2023-10-09T16:13:59;19.70;99.90
19342;DHT22;9807;48.258;12.690;2023-10-09T16:16:25;19.70;99.90
19342;DHT22;9807;48.258;12.690;2023-10-09T16:18:51;19.60;99.90
19342;DHT22;9807;48.258;12.690;2023-10-09T16:21:17;19.50;99.90
19342;DHT22;9807;48.258;12.690;2023-10-09T16:23:43;19.60;99.90
19342;DHT22;9807;48.258;12.690;2023-10-09T16:26:08;19.60;99.90
19342;DHT22;9807;48.258;12.690;2023-10-09T16:28:35;19.60;99.90
19342;DHT22;9807;48.258;12.690;2023-10-09T16:31:01;19.70;99.90
19342;DHT22;9807;48.258;12.690;2023-10-09T16:33:27;19.60;99.90
19342;DHT22;9807;48.258;12.690;2023-10-09T16:35:57;19.60;99.90
19342;DHT22;9807;48.258;12.690;2023-10-09T16:38:25;19.60;99.90
19342;DHT22;9807;48.258;12.690;2023-10-09T16:40:55;19.60;99.90
19342;DHT22;9807;48.258;12.690;2023-10-09T16:43:24;19.70;99.90
19342;DHT22;9807;48.258;12.690;2023-10-09T16:45:54;19.70;99.90